sensor_id;sensor_type;location;lat;lon;timestamp;pressure;altitude;pressure_sealevel;temperature;humidity
41862;BME280;27537;57.134;-2.136;2023-06-05T00:00:48;102267.63;;;12.99;100.00
41862;BME280;27537;57.134;-2.136;2023-06-05T00:03:15;102247.53;;;12.97;100.00
41862;BME280;27537;57.134;-2.136;2023-06-05T00:05:45;102267.72;;;12.96;100.00
41862;BME280;27537;57.134;-2.136;2023-06-05T00:08:12;102258.13;;;12.94;100.00
41862;BME280;27537;57.134;-2.136;2023-06-05T00:10:38;102264.13;;;12.99;100.00
41862;BME280;27537;57.134;-2.136;2023-06-05T00:13:05;102265.91;;;12.98;100.00
41862;BME280;27537;57.134;-2.136;2023-06-05T00:15:32;102257.09;;;12.99;100.00
41862;BME280;27537;57.134;-2.136;2023-06-05T00:18:02;102249.38;;;12.93;100.00
41862;BME280;27537;57.134;-2.136;2023-06-05T00:20:30;102265.25;;;12.88;100.00
41862;BME280;27537;57.134;-2.136;2023-06-05T00:22:57;102243.09;;;12.99;100.00
41862;BME280;27537;57.134;-2.136;2023-06-05T00:25:24;102230.44;;;13.15;100.00
41862;BME280;27537;57.134;-2.136;2023-06-05T00:27:51;102260.75;;;13.31;100.00
41862;BME280;27537;57.134;-2.136;2023-06-05T00:30:17;102255.66;;;13.23;100.00
41862;BME280;27537;57.134;-2.136;2023-06-05T00:32:44;102255.63;;;13.25;100.00
41862;BME280;27537;57.134;-2.136;2023-06-05T00:35:11;102259.59;;;13.43;100.00
41862;BME280;27537;57.134;-2.136;2023-06-05T00:37:38;102255.22;;;13.42;100.00
41862;BME280;27537;57.134;-2.136;2023-06-05T00:40:06;102263.59;;;13.58;100.00
41862;BME280;27537;57.134;-2.136;2023-06-05T00:42:33;102256.91;;;13.46;100.00
41862;BME280;27537;57.134;-2.136;2023-06-05T00:45:00;102268.28;;;13.46;100.00
41862;BME280;27537;57.134;-2.136;2023-06-05T00:47:26;102261.41;;;13.41;100.00
41862;BME280;27537;57.134;-2.136;2023-06-05T00:49:53;102262.22;;;13.43;100.00
41862;BME280;27537;57.134;-2.136;2023-06-05T00:52:20;102258.09;;;13.33;100.00
41862;BME280;27537;57.134;-2.136;2023-06-05T00:54:47;102261.78;;;13.24;100.00
41862;BME280;27537;57.134;-2.136;2023-06-05T00:57:14;102259.81;;;13.35;100.00
41862;BME280;27537;57.134;-2.136;2023-06-05T00:59:41;102256.00;;;13.45;100.00
41862;BME280;27537;57.134;-2.136;2023-06-05T01:02:14;102253.50;;;13.41;100.00
41862;BME280;27537;57.134;-2.136;2023-06-05T01:04:41;102233.53;;;13.34;100.00
41862;BME280;27537;57.134;-2.136;2023-06-05T01:07:10;102256.00;;;13.45;100.00
41862;BME280;27537;57.134;-2.136;2023-06-05T01:09:37;102258.53;;;13.50;100.00
41862;BME280;27537;57.134;-2.136;2023-06-05T01:14:45;102241.13;;;13.46;100.00
41862;BME280;27537;57.134;-2.136;2023-06-05T01:17:16;102241.22;;;13.41;100.00
41862;BME280;27537;57.134;-2.136;2023-06-05T01:19:45;102245.63;;;13.41;100.00
41862;BME280;27537;57.134;-2.136;2023-06-05T01:22:12;102245.59;;;13.42;100.00
41862;BME280;27537;57.134;-2.136;2023-06-05T01:24:39;102242.69;;;13.53;100.00
41862;BME280;27537;57.134;-2.136;2023-06-05T01:27:14;102254.38;;;13.41;100.00
41862;BME280;27537;57.134;-2.136;2023-06-05T01:29:57;102247.81;;;13.22;100.00
41862;BME280;27537;57.134;-2.136;2023-06-05T01:32:58;102236.41;;;13.23;100.00
41862;BME280;27537;57.134;-2.136;2023-06-05T01:35:31;102237.34;;;13.19;100.00
41862;BME280;27537;57.134;-2.136;2023-06-05T01:38:01;102236.50;;;13.18;100.00
41862;BME280;27537;57.134;-2.136;2023-06-05T01:40:30;102238.13;;;13.22;100.00
41862;BME280;27537;57.134;-2.136;2023-06-05T01:42:59;102240.69;;;13.25;100.00
41862;BME280;27537;57.134;-2.136;2023-06-05T01:45:27;102236.47;;;13.20;100.00
41862;BME280;27537;57.134;-2.136;2023-06-05T01:47:54;102234.88;;;13.13;100.00
41862;BME280;27537;57.134;-2.136;2023-06-05T01:50:23;102230.66;;;13.07;100.00
41862;BME280;27537;57.134;-2.136;2023-06-05T01:52:51;102228.72;;;13.14;100.00
41862;BME280;27537;57.134;-2.136;2023-06-05T01:55:21;102220.72;;;13.18;100.00
41862;BME280;27537;57.134;-2.136;2023-06-05T01:57:53;102232.06;;;13.20;100.00
41862;BME280;27537;57.134;-2.136;2023-06-05T02:00:20;102234.88;;;13.13;100.00
41862;BME280;27537;57.134;-2.136;2023-06-05T02:02:48;102233.25;;;13.08;100.00
41862;BME280;27537;57.134;-2.136;2023-06-05T02:05:16;102232.28;;;13.11;100.00
41862;BME280;27537;57.134;-2.136;2023-06-05T02:07:48;102228.78;;;13.12;100.00
41862;BME280;27537;57.134;-2.136;2023-06-05T02:10:20;102214.50;;;13.21;100.00
41862;BME280;27537;57.134;-2.136;2023-06-05T02:12:48;102225.22;;;13.13;100.00
41862;BME280;27537;57.134;-2.136;2023-06-05T02:15:15;102222.38;;;13.22;100.00
41862;BME280;27537;57.134;-2.136;2023-06-05T02:17:43;102216.66;;;13.05;100.00
41862;BME280;27537;57.134;-2.136;2023-06-05T02:20:18;102232.97;;;13.19;100.00
41862;BME280;27537;57.134;-2.136;2023-06-05T02:22:45;102226.88;;;13.17;100.00
41862;BME280;27537;57.134;-2.136;2023-06-05T02:25:16;102233.06;;;13.16;100.00
41862;BME280;27537;57.134;-2.136;2023-06-05T02:27:44;102242.22;;;13.37;100.00
41862;BME280;27537;57.134;-2.136;2023-06-05T02:30:12;102203.34;;;13.13;100.00
41862;BME280;27537;57.134;-2.136;2023-06-05T02:32:39;102238.00;;;13.28;100.00
41862;BME280;27537;57.134;-2.136;2023-06-05T02:35:11;102219.69;;;13.24;100.00
41862;BME280;27537;57.134;-2.136;2023-06-05T02:37:38;102215.97;;;13.34;100.00
41862;BME280;27537;57.134;-2.136;2023-06-05T02:40:13;102224.66;;;13.38;100.00
41862;BME280;27537;57.134;-2.136;2023-06-05T02:42:41;102225.59;;;13.35;100.00
41862;BME280;27537;57.134;-2.136;2023-06-05T02:45:08;102237.84;;;13.36;100.00
41862;BME280;27537;57.134;-2.136;2023-06-05T02:47:35;102223.81;;;13.36;100.00
41862;BME280;27537;57.134;-2.136;2023-06-05T02:50:02;102203.19;;;13.17;100.00
41862;BME280;27537;57.134;-2.136;2023-06-05T02:52:29;102222.19;;;13.30;100.00
41862;BME280;27537;57.134;-2.136;2023-06-05T02:54:58;102228.38;;;13.27;100.00
41862;BME280;27537;57.134;-2.136;2023-06-05T02:57:25;102222.53;;;13.16;100.00
41862;BME280;27537;57.134;-2.136;2023-06-05T02:59:53;102215.63;;;13.12;100.00
41862;BME280;27537;57.134;-2.136;2023-06-05T03:02:21;102219.97;;;13.13;100.00
41862;BME280;27537;57.134;-2.136;2023-06-05T03:04:48;102227.75;;;13.18;100.00
41862;BME280;27537;57.134;-2.136;2023-06-05T03:07:21;102220.81;;;13.14;100.00
41862;BME280;27537;57.134;-2.136;2023-06-05T03:09:49;102212.16;;;13.10;100.00
41862;BME280;27537;57.134;-2.136;2023-06-05T03:12:16;102220.47;;;13.27;100.00
41862;BME280;27537;57.134;-2.136;2023-06-05T03:14:43;102211.84;;;13.22;100.00
41862;BME280;27537;57.134;-2.136;2023-06-05T03:17:09;102221.53;;;13.20;100.00
41862;BME280;27537;57.134;-2.136;2023-06-05T03:19:36;102222.94;;;12.99;100.00
41862;BME280;27537;57.134;-2.136;2023-06-05T03:22:04;102220.78;;;13.15;100.00
41862;BME280;27537;57.134;-2.136;2023-06-05T03:24:31;102218.34;;;13.07;100.00
41862;BME280;27537;57.134;-2.136;2023-06-05T03:26:58;102220.88;;;13.12;100.00
41862;BME280;27537;57.134;-2.136;2023-06-05T03:29:24;102222.25;;;13.27;100.00
41862;BME280;27537;57.134;-2.136;2023-06-05T03:31:51;102227.84;;;13.13;100.00
41862;BME280;27537;57.134;-2.136;2023-06-05T03:34:18;102213.06;;;13.09;100.00
41862;BME280;27537;57.134;-2.136;2023-06-05T03:36:45;102212.91;;;13.15;100.00
41862;BME280;27537;57.134;-2.136;2023-06-05T03:39:11;102227.00;;;13.13;100.00
41862;BME280;27537;57.134;-2.136;2023-06-05T03:41:38;102228.56;;;13.20;100.00
41862;BME280;27537;57.134;-2.136;2023-06-05T03:44:05;102231.22;;;13.20;100.00
41862;BME280;27537;57.134;-2.136;2023-06-05T03:46:33;102234.66;;;13.22;100.00
41862;BME280;27537;57.134;-2.136;2023-06-05T03:49:00;102231.53;;;13.06;100.00
41862;BME280;27537;57.134;-2.136;2023-06-05T03:51:31;102223.28;;;13.21;100.00
41862;BME280;27537;57.134;-2.136;2023-06-05T03:53:59;102232.09;;;13.19;100.00
41862;BME280;27537;57.134;-2.136;2023-06-05T03:56:26;102226.03;;;13.15;100.00
41862;BME280;27537;57.134;-2.136;2023-06-05T03:59:01;102232.09;;;13.19;100.00
41862;BME280;27537;57.134;-2.136;2023-06-05T04:01:36;102226.06;;;13.14;100.00
41862;BME280;27537;57.134;-2.136;2023-06-05T04:04:05;102218.13;;;13.17;100.00
41862;BME280;27537;57.134;-2.136;2023-06-05T04:06:32;102217.63;;;13.01;100.00
41862;BME280;27537;57.134;-2.136;2023-06-05T04:08:59;102219.16;;;13.11;100.00
41862;BME280;27537;57.134;-2.136;2023-06-05T04:11:26;102217.50;;;13.07;100.00
41862;BME280;27537;57.134;-2.136;2023-06-05T04:13:56;102217.41;;;13.10;100.00
41862;BME280;27537;57.134;-2.136;2023-06-05T04:16:22;102217.56;;;13.04;100.00
41862;BME280;27537;57.134;-2.136;2023-06-05T04:18:49;102223.66;;;13.06;100.00
41862;BME280;27537;57.134;-2.136;2023-06-05T04:21:16;102228.81;;;13.10;100.00
41862;BME280;27537;57.134;-2.136;2023-06-05T04:23:43;102226.47;;;12.98;100.00
41862;BME280;27537;57.134;-2.136;2023-06-05T04:26:10;102211.75;;;12.91;100.00
41862;BME280;27537;57.134;-2.136;2023-06-05T04:28:38;102203.72;;;12.96;100.00
41862;BME280;27537;57.134;-2.136;2023-06-05T04:31:04;102224.66;;;13.00;100.00
41862;BME280;27537;57.134;-2.136;2023-06-05T04:33:32;102221.38;;;12.90;100.00
41862;BME280;27537;57.134;-2.136;2023-06-05T04:35:59;102229.16;;;12.95;100.00
41862;BME280;27537;57.134;-2.136;2023-06-05T04:38:27;102213.53;;;12.89;100.00
41862;BME280;27537;57.134;-2.136;2023-06-05T04:40:54;102228.50;;;12.85;100.00
41862;BME280;27537;57.134;-2.136;2023-06-05T04:43:21;102228.44;;;12.88;100.00
41862;BME280;27537;57.134;-2.136;2023-06-05T04:45:49;102226.72;;;12.87;100.00
41862;BME280;27537;57.134;-2.136;2023-06-05T04:48:16;102215.84;;;13.01;100.00
41862;BME280;27537;57.134;-2.136;2023-06-05T04:50:42;102215.13;;;12.96;100.00
41862;BME280;27537;57.134;-2.136;2023-06-05T04:53:09;102224.47;;;13.08;100.00
41862;BME280;27537;57.134;-2.136;2023-06-05T04:55:37;102220.41;;;12.96;100.00
41862;BME280;27537;57.134;-2.136;2023-06-05T04:58:03;102232.00;;;12.87;100.00
41862;BME280;27537;57.134;-2.136;2023-06-05T05:00:30;102217.44;;;12.71;100.00
41862;BME280;27537;57.134;-2.136;2023-06-05T05:02:57;102223.19;;;12.88;100.00
41862;BME280;27537;57.134;-2.136;2023-06-05T05:05:26;102225.84;;;12.87;100.00
41862;BME280;27537;57.134;-2.136;2023-06-05T05:07:52;102227.56;;;12.89;100.00
41862;BME280;27537;57.134;-2.136;2023-06-05T05:10:22;102223.97;;;12.92;100.00
41862;BME280;27537;57.134;-2.136;2023-06-05T05:12:49;102222.16;;;12.94;100.00
41862;BME280;27537;57.134;-2.136;2023-06-05T05:15:16;102223.66;;;13.06;100.00
41862;BME280;27537;57.134;-2.136;2023-06-05T05:17:42;102209.00;;;12.96;100.00
41862;BME280;27537;57.134;-2.136;2023-06-05T05:20:09;102222.00;;;13.02;100.00
41862;BME280;27537;57.134;-2.136;2023-06-05T05:22:38;102233.25;;;13.08;100.00
41862;BME280;27537;57.134;-2.136;2023-06-05T05:25:05;102230.47;;;13.13;100.00
41862;BME280;27537;57.134;-2.136;2023-06-05T05:27:32;102219.03;;;13.16;100.00
41862;BME280;27537;57.134;-2.136;2023-06-05T05:29:59;102229.41;;;13.22;100.00
41862;BME280;27537;57.134;-2.136;2023-06-05T05:32:26;102226.03;;;13.15;100.00
41862;BME280;27537;57.134;-2.136;2023-06-05T05:34:53;102221.19;;;13.00;100.00
41862;BME280;27537;57.134;-2.136;2023-06-05T05:37:19;102226.28;;;13.06;100.00
41862;BME280;27537;57.134;-2.136;2023-06-05T05:39:47;102225.06;;;12.83;100.00
41862;BME280;27537;57.134;-2.136;2023-06-05T05:42:13;102230.50;;;12.76;100.00
41862;BME280;27537;57.134;-2.136;2023-06-05T05:44:40;102220.53;;;12.90;100.00
41862;BME280;27537;57.134;-2.136;2023-06-05T05:47:10;102221.97;;;13.03;100.00
41862;BME280;27537;57.134;-2.136;2023-06-05T05:49:37;102219.41;;;13.00;100.00
41862;BME280;27537;57.134;-2.136;2023-06-05T05:52:04;102233.44;;;12.99;100.00
41862;BME280;27537;57.134;-2.136;2023-06-05T05:54:31;102197.72;;;12.90;100.00
41862;BME280;27537;57.134;-2.136;2023-06-05T05:56:57;102233.91;;;13.17;100.00
41862;BME280;27537;57.134;-2.136;2023-06-05T05:59:24;102225.59;;;12.98;100.00
41862;BME280;27537;57.134;-2.136;2023-06-05T06:01:51;102218.25;;;13.12;100.00
41862;BME280;27537;57.134;-2.136;2023-06-05T06:04:18;102232.28;;;13.11;100.00
41862;BME280;27537;57.134;-2.136;2023-06-05T06:06:45;102232.84;;;13.24;100.00
41862;BME280;27537;57.134;-2.136;2023-06-05T06:09:14;102241.31;;;13.37;100.00
41862;BME280;27537;57.134;-2.136;2023-06-05T06:11:42;102236.00;;;13.40;100.00
41862;BME280;27537;57.134;-2.136;2023-06-05T06:14:08;102237.03;;;13.33;100.00
41862;BME280;27537;57.134;-2.136;2023-06-05T06:16:37;102235.44;;;13.25;100.00
41862;BME280;27537;57.134;-2.136;2023-06-05T06:19:04;102225.97;;;13.18;100.00
41862;BME280;27537;57.134;-2.136;2023-06-05T06:21:31;102235.25;;;13.35;100.00
41862;BME280;27537;57.134;-2.136;2023-06-05T06:23:57;102239.59;;;13.36;100.00
41862;BME280;27537;57.134;-2.136;2023-06-05T06:26:24;102237.88;;;13.35;100.00
41862;BME280;27537;57.134;-2.136;2023-06-05T06:28:53;102242.16;;;13.39;100.00
41862;BME280;27537;57.134;-2.136;2023-06-05T06:31:22;102240.16;;;13.48;100.00
41862;BME280;27537;57.134;-2.136;2023-06-05T06:33:49;102242.75;;;13.50;100.00
41862;BME280;27537;57.134;-2.136;2023-06-05T06:36:15;102232.47;;;13.41;100.00
41862;BME280;27537;57.134;-2.136;2023-06-05T06:38:44;102242.66;;;13.55;100.00
41862;BME280;27537;57.134;-2.136;2023-06-05T06:41:12;102232.25;;;13.48;100.00
41862;BME280;27537;57.134;-2.136;2023-06-05T06:43:39;102240.94;;;13.52;100.00
41862;BME280;27537;57.134;-2.136;2023-06-05T06:46:05;102240.03;;;13.53;100.00
41862;BME280;27537;57.134;-2.136;2023-06-05T06:48:33;102234.75;;;13.55;100.00
41862;BME280;27537;57.134;-2.136;2023-06-05T06:51:00;102242.25;;;13.68;100.00
41862;BME280;27537;57.134;-2.136;2023-06-05T06:53:27;102248.91;;;13.49;100.00
41862;BME280;27537;57.134;-2.136;2023-06-05T06:55:53;102232.28;;;13.47;100.00
41862;BME280;27537;57.134;-2.136;2023-06-05T06:58:20;102244.41;;;13.53;100.00
41862;BME280;27537;57.134;-2.136;2023-06-05T07:00:47;102243.09;;;13.71;100.00
41862;BME280;27537;57.134;-2.136;2023-06-05T07:03:15;102231.94;;;13.61;100.00
41862;BME280;27537;57.134;-2.136;2023-06-05T07:05:42;102241.72;;;13.56;100.00
41862;BME280;27537;57.134;-2.136;2023-06-05T07:08:09;102242.84;;;13.45;100.00
41862;BME280;27537;57.134;-2.136;2023-06-05T07:10:36;102250.69;;;13.48;100.00
41862;BME280;27537;57.134;-2.136;2023-06-05T07:13:03;102243.75;;;13.46;100.00
41862;BME280;27537;57.134;-2.136;2023-06-05T07:15:30;102241.31;;;13.71;100.00
41862;BME280;27537;57.134;-2.136;2023-06-05T07:17:56;102246.69;;;13.66;100.00
41862;BME280;27537;57.134;-2.136;2023-06-05T07:20:23;102234.16;;;13.76;100.00
41862;BME280;27537;57.134;-2.136;2023-06-05T07:22:50;102242.69;;;13.84;100.00
41862;BME280;27537;57.134;-2.136;2023-06-05T07:25:16;102242.22;;;13.70;100.00
41862;BME280;27537;57.134;-2.136;2023-06-05T07:27:44;102243.25;;;13.64;100.00
41862;BME280;27537;57.134;-2.136;2023-06-05T07:30:12;102234.50;;;13.64;100.00
41862;BME280;27537;57.134;-2.136;2023-06-05T07:32:42;102254.72;;;13.95;100.00
41862;BME280;27537;57.134;-2.136;2023-06-05T07:35:09;102242.44;;;13.95;100.00
41862;BME280;27537;57.134;-2.136;2023-06-05T07:37:36;102234.31;;;13.70;100.00
41862;BME280;27537;57.134;-2.136;2023-06-05T07:40:03;102244.47;;;13.84;100.00
41862;BME280;27537;57.134;-2.136;2023-06-05T07:42:30;102242.69;;;13.84;100.00
41862;BME280;27537;57.134;-2.136;2023-06-05T07:44:57;102245.44;;;13.81;100.00
41862;BME280;27537;57.134;-2.136;2023-06-05T07:47:24;102253.34;;;13.81;100.00
41862;BME280;27537;57.134;-2.136;2023-06-05T07:49:59;102242.03;;;13.78;100.00
41862;BME280;27537;57.134;-2.136;2023-06-05T07:52:30;102249.50;;;13.93;100.00
41862;BME280;27537;57.134;-2.136;2023-06-05T07:54:58;102240.84;;;13.88;100.00
41862;BME280;27537;57.134;-2.136;2023-06-05T07:57:25;102256.47;;;13.96;100.00
41862;BME280;27537;57.134;-2.136;2023-06-05T07:59:52;102246.34;;;13.80;100.00
41862;BME280;27537;57.134;-2.136;2023-06-05T08:02:20;102252.19;;;13.92;100.00
41862;BME280;27537;57.134;-2.136;2023-06-05T08:04:47;102249.44;;;13.95;100.00
41862;BME280;27537;57.134;-2.136;2023-06-05T08:07:14;102238.88;;;13.96;100.00
41862;BME280;27537;57.134;-2.136;2023-06-05T08:09:41;102243.06;;;14.03;100.00
41862;BME280;27537;57.134;-2.136;2023-06-05T08:12:08;102247.28;;;14.09;100.00
41862;BME280;27537;57.134;-2.136;2023-06-05T08:14:35;102252.78;;;14.01;100.00
41862;BME280;27537;57.134;-2.136;2023-06-05T08:17:03;102243.56;;;14.16;100.00
41862;BME280;27537;57.134;-2.136;2023-06-05T08:19:30;102252.94;;;14.27;100.00
41862;BME280;27537;57.134;-2.136;2023-06-05T08:21:57;102233.09;;;14.15;100.00
41862;BME280;27537;57.134;-2.136;2023-06-05T08:24:23;102240.69;;;14.26;100.00
41862;BME280;27537;57.134;-2.136;2023-06-05T08:26:50;102235.63;;;14.18;100.00
41862;BME280;27537;57.134;-2.136;2023-06-05T08:29:17;102233.09;;;14.15;100.00
41862;BME280;27537;57.134;-2.136;2023-06-05T08:31:44;102230.28;;;14.21;100.00
41862;BME280;27537;57.134;-2.136;2023-06-05T08:34:12;102239.72;;;14.28;100.00
41862;BME280;27537;57.134;-2.136;2023-06-05T08:36:38;102238.97;;;14.24;100.00
41862;BME280;27537;57.134;-2.136;2023-06-05T08:39:05;102238.38;;;14.44;100.00
41862;BME280;27537;57.134;-2.136;2023-06-05T08:41:32;102226.59;;;14.27;100.00
41862;BME280;27537;57.134;-2.136;2023-06-05T08:43:59;102229.03;;;14.34;100.00
41862;BME280;27537;57.134;-2.136;2023-06-05T08:46:29;102230.16;;;14.26;100.00
41862;BME280;27537;57.134;-2.136;2023-06-05T08:49:07;102241.34;;;14.32;100.00
41862;BME280;27537;57.134;-2.136;2023-06-05T08:51:34;102240.34;;;14.38;100.00
41862;BME280;27537;57.134;-2.136;2023-06-05T08:54:03;102232.69;;;14.29;100.00
41862;BME280;27537;57.134;-2.136;2023-06-05T08:56:39;102222.78;;;14.37;100.00
41862;BME280;27537;57.134;-2.136;2023-06-05T08:59:07;102240.28;;;14.69;100.00
41862;BME280;27537;57.134;-2.136;2023-06-05T09:01:33;102222.66;;;14.71;100.00
41862;BME280;27537;57.134;-2.136;2023-06-05T09:04:01;102227.91;;;14.71;100.00
41862;BME280;27537;57.134;-2.136;2023-06-05T09:06:28;102224.50;;;14.68;100.00
41862;BME280;27537;57.134;-2.136;2023-06-05T09:08:55;102234.44;;;14.59;100.00
41862;BME280;27537;57.134;-2.136;2023-06-05T09:11:23;102241.69;;;14.51;100.00
41862;BME280;27537;57.134;-2.136;2023-06-05T09:13:50;102238.72;;;14.64;100.00
41862;BME280;27537;57.134;-2.136;2023-06-05T09:16:35;102224.94;;;14.54;100.00
41862;BME280;27537;57.134;-2.136;2023-06-05T09:19:02;102233.66;;;14.56;100.00
41862;BME280;27537;57.134;-2.136;2023-06-05T09:21:30;102246.03;;;14.54;100.00
41862;BME280;27537;57.134;-2.136;2023-06-05T09:29:32;102242.16;;;14.66;100.00
41862;BME280;27537;57.134;-2.136;2023-06-05T09:32:01;102233.34;;;14.67;100.00
41862;BME280;27537;57.134;-2.136;2023-06-05T09:36:57;102228.38;;;14.86;100.00
41862;BME280;27537;57.134;-2.136;2023-06-05T09:39:25;102242.91;;;14.69;100.00
41862;BME280;27537;57.134;-2.136;2023-06-05T09:41:54;102239.31;;;14.73;100.00
41862;BME280;27537;57.134;-2.136;2023-06-05T09:44:22;102236.88;;;14.66;100.00
41862;BME280;27537;57.134;-2.136;2023-06-05T09:49:17;102227.06;;;14.71;100.00
41862;BME280;27537;57.134;-2.136;2023-06-05T09:51:45;102229.59;;;14.74;100.00
41862;BME280;27537;57.134;-2.136;2023-06-05T09:54:13;102241.56;;;14.86;100.00
41862;BME280;27537;57.134;-2.136;2023-06-05T09:56:40;102240.91;;;14.77;100.00
41862;BME280;27537;57.134;-2.136;2023-06-05T09:59:13;102239.53;;;14.94;100.00
41862;BME280;27537;57.134;-2.136;2023-06-05T10:01:43;102240.59;;;14.88;100.00
41862;BME280;27537;57.134;-2.136;2023-06-05T10:04:13;102233.06;;;14.76;100.00
41862;BME280;27537;57.134;-2.136;2023-06-05T10:06:42;102239.00;;;14.83;100.00
41862;BME280;27537;57.134;-2.136;2023-06-05T10:09:09;102234.75;;;14.78;100.00
41862;BME280;27537;57.134;-2.136;2023-06-05T10:11:38;102232.66;;;14.88;100.00
41862;BME280;27537;57.134;-2.136;2023-06-05T10:14:08;102234.78;;;14.77;100.00
41862;BME280;27537;57.134;-2.136;2023-06-05T10:16:36;102239.78;;;14.56;100.00
41862;BME280;27537;57.134;-2.136;2023-06-05T10:19:03;102250.25;;;14.59;100.00
41862;BME280;27537;57.134;-2.136;2023-06-05T10:21:30;102243.50;;;14.49;100.00
41862;BME280;27537;57.134;-2.136;2023-06-05T10:24:03;102248.69;;;14.22;100.00
41862;BME280;27537;57.134;-2.136;2023-06-05T10:32:01;102244.28;;;14.23;100.00
41862;BME280;27537;57.134;-2.136;2023-06-05T10:34:40;102256.06;;;14.39;100.00
41862;BME280;27537;57.134;-2.136;2023-06-05T10:37:38;102252.00;;;14.29;100.00
41862;BME280;27537;57.134;-2.136;2023-06-05T10:40:06;102244.06;;;14.31;100.00
41862;BME280;27537;57.134;-2.136;2023-06-05T10:42:36;102251.78;;;14.37;100.00
41862;BME280;27537;57.134;-2.136;2023-06-05T10:45:03;102251.72;;;14.38;100.00
41862;BME280;27537;57.134;-2.136;2023-06-05T10:52:43;102252.31;;;14.48;100.00
41862;BME280;27537;57.134;-2.136;2023-06-05T10:55:12;102255.66;;;14.53;100.00
41862;BME280;27537;57.134;-2.136;2023-06-05T11:00:30;102242.44;;;14.55;100.00
41862;BME280;27537;57.134;-2.136;2023-06-05T11:02:57;102235.91;;;14.70;100.00
41862;BME280;27537;57.134;-2.136;2023-06-05T11:05:28;102242.13;;;14.67;100.00
41862;BME280;27537;57.134;-2.136;2023-06-05T11:08:14;102253.84;;;14.85;100.00
41862;BME280;27537;57.134;-2.136;2023-06-05T11:11:04;102255.78;;;14.80;100.00
41862;BME280;27537;57.134;-2.136;2023-06-05T11:13:53;102254.41;;;14.68;100.00
41862;BME280;27537;57.134;-2.136;2023-06-05T11:16:33;102254.41;;;14.68;100.00
41862;BME280;27537;57.134;-2.136;2023-06-05T11:24:29;102256.69;;;14.79;100.00
41862;BME280;27537;57.134;-2.136;2023-06-05T11:26:56;102254.97;;;14.78;100.00
41862;BME280;27537;57.134;-2.136;2023-06-05T11:29:23;102248.97;;;14.73;100.00
41862;BME280;27537;57.134;-2.136;2023-06-05T11:31:52;102254.66;;;14.87;100.00
41862;BME280;27537;57.134;-2.136;2023-06-05T11:34:20;102253.97;;;14.82;100.00
41862;BME280;27537;57.134;-2.136;2023-06-05T11:36:47;102254.09;;;14.77;100.00
41862;BME280;27537;57.134;-2.136;2023-06-05T11:39:16;102248.81;;;14.48;100.00
41862;BME280;27537;57.134;-2.136;2023-06-05T11:41:44;102235.59;;;14.19;100.00
41862;BME280;27537;57.134;-2.136;2023-06-05T11:44:12;102243.16;;;14.61;100.00
41862;BME280;27537;57.134;-2.136;2023-06-05T11:46:43;102250.63;;;14.77;100.00
41862;BME280;27537;57.134;-2.136;2023-06-05T11:49:24;102243.66;;;14.74;100.00
41862;BME280;27537;57.134;-2.136;2023-06-05T11:51:52;102251.00;;;14.65;100.00
41862;BME280;27537;57.134;-2.136;2023-06-05T11:54:26;102253.81;;;14.58;100.00
41862;BME280;27537;57.134;-2.136;2023-06-05T11:56:57;102256.19;;;14.36;100.00
41862;BME280;27537;57.134;-2.136;2023-06-05T11:59:24;102247.63;;;14.28;100.00
41862;BME280;27537;57.134;-2.136;2023-06-05T12:01:51;102255.88;;;14.16;100.00
41862;BME280;27537;57.134;-2.136;2023-06-05T12:04:21;102258.13;;;13.98;100.00
41862;BME280;27537;57.134;-2.136;2023-06-05T12:06:48;102258.53;;;14.16;100.00
41862;BME280;27537;57.134;-2.136;2023-06-05T12:09:15;102260.03;;;14.24;100.00
41862;BME280;27537;57.134;-2.136;2023-06-05T12:11:45;102263.41;;;14.30;100.00
41862;BME280;27537;57.134;-2.136;2023-06-05T12:14:13;102258.47;;;14.17;100.00
41862;BME280;27537;57.134;-2.136;2023-06-05T12:16:53;102261.94;;;14.19;100.00
41862;BME280;27537;57.134;-2.136;2023-06-05T12:19:20;102257.16;;;14.32;100.00
41862;BME280;27537;57.134;-2.136;2023-06-05T12:21:48;102266.84;;;14.32;100.00
41862;BME280;27537;57.134;-2.136;2023-06-05T12:24:26;102277.53;;;14.27;100.00
41862;BME280;27537;57.134;-2.136;2023-06-05T12:29:28;102276.53;;;14.31;100.00
41862;BME280;27537;57.134;-2.136;2023-06-05T12:31:57;102252.47;;;14.12;100.00
41862;BME280;27537;57.134;-2.136;2023-06-05T12:34:47;102263.69;;;14.20;100.00
41862;BME280;27537;57.134;-2.136;2023-06-05T12:37:31;102271.84;;;14.11;100.00
41862;BME280;27537;57.134;-2.136;2023-06-05T12:40:00;102271.53;;;14.22;100.00
41862;BME280;27537;57.134;-2.136;2023-06-05T12:42:27;102265.84;;;14.36;100.00
41862;BME280;27537;57.134;-2.136;2023-06-05T12:44:55;102264.91;;;14.38;100.00
41862;BME280;27537;57.134;-2.136;2023-06-05T12:47:22;102262.00;;;14.48;100.00
41862;BME280;27537;57.134;-2.136;2023-06-05T12:49:49;102260.03;;;14.54;100.00
41862;BME280;27537;57.134;-2.136;2023-06-05T12:52:16;102257.69;;;14.45;100.00
41862;BME280;27537;57.134;-2.136;2023-06-05T12:54:43;102257.78;;;14.42;100.00
41862;BME280;27537;57.134;-2.136;2023-06-05T12:57:10;102265.09;;;14.62;100.00
41862;BME280;27537;57.134;-2.136;2023-06-05T12:59:39;102258.78;;;14.68;100.00
41862;BME280;27537;57.134;-2.136;2023-06-05T13:02:06;102233.56;;;14.29;100.00
41862;BME280;27537;57.134;-2.136;2023-06-05T13:04:33;102261.06;;;14.50;100.00
41862;BME280;27537;57.134;-2.136;2023-06-05T13:07:02;102263.81;;;14.46;100.00
41862;BME280;27537;57.134;-2.136;2023-06-05T13:09:30;102272.16;;;14.61;100.00
41862;BME280;27537;57.134;-2.136;2023-06-05T13:11:57;102260.31;;;14.45;100.00